Metar Cercanos

 

LEPA - Palma De Mallorc, Spain
Distance from station: ONO 38km
Actualización: 21/11/2018 08:30
Few Clouds
Few Clouds
 Viento del O
Viento: O 26 km/h
Temperatura: 16°C
Rocío: 10°C
Humedad: 68%
Barómetro: 1010 hPa
Clouds: Few Clouds
Visibility: 10 km
Cloud details: Few Clouds 610 m
2018/11/21 07:30 LEPA 210730Z 27014KT 9999 FEW020 16/10 Q1010 NOSIG
LEMH - Mahon/Menorca Is, Spain
Distance from station: ENE 105km
Actualización: 21/11/2018 08:30
Few Clouds
Few Clouds
 Viento del O
Viento: O 20 km/h
Temperatura: 15°C
Rocío: 10°C
Humedad: 72%
Barómetro: 1010 hPa
Clouds: Few Clouds
Visibility: 10 km
Cloud details: Few Clouds 610 m
2018/11/21 07:30 LEMH 210730Z 26011KT 230V290 9999 FEW020 15/10 Q1010
 
LEIB - Ibiza/Es Codola, Spain
Distance from station: OSO 165km
Actualización: 21/11/2018 08:30
Few Clouds
Few Clouds
 Viento del O
Viento: O 15 km/h
Temperatura: 16°C
Rocío: 7°C
Humedad: 55%
Barómetro: 1011 hPa
Clouds: Few Clouds
Visibility: 10 km
Cloud details: Few Clouds 305 m
2018/11/21 07:30 LEIB 210730Z 28008KT 240V330 9999 FEW010 16/07 Q1011 NOSIG
LEBL - Barcelona Airpor, Spain
Distance from station: NNO 225km
Actualización: 21/11/2018 08:30
Few Clouds
Few Clouds
 Viento del NNO
Viento: NNO 13 km/h
Temperatura: 9°C
Sensación frio: 7°C
Rocío: 7°C
Humedad: 87%
Barómetro: 1009 hPa
Clouds: Few Clouds
Visibility: 9 km
Cloud details: Few Clouds 610 m
2018/11/21 07:30 LEBL 210730Z 33007KT 9000 R25L/1300N FEW020 09/07 Q1009 NOSIG
 
LEVC - Valencia (civ/Mi, Spain
Distance from station: NO 188km
Actualización: 21/11/2018 08:30
Few Clouds
Few Clouds
 Viento del O
Viento: O 15 km/h
Temperatura: 12°C
Rocío: 7°C
Humedad: 72%
Barómetro: 1011 hPa
Clouds: Few Clouds
Visibility: 10 km
Cloud details: Few Clouds 1524 m
2018/11/21 07:30 LEVC 210730Z 26008KT 9999 FEW050 12/07 Q1011 NOSIG
LEGE - Gerona/Costa Bra, Spain
Distance from station: N 276km
Actualización: 21/11/2018 08:30
Few Clouds
Few Clouds
 Viento del varies
Viento: varies 4 km/h
Temperatura: 5°C
Rocío: 5°C
Humedad: 100%
Barómetro: 1008 hPa
Clouds: Few Clouds
Visibility: 8 km
Cloud details: Few Clouds 244 m
2018/11/21 07:30 LEGE 210730Z VRB02KT 8000 FEW008 05/05 Q1008
 
LEAL - Alicante/El Alte, Spain
Distance from station: OSO 344km
Actualización: 21/11/2018 08:30
Few Clouds
Few Clouds
 Viento del OSO
Viento: OSO 9 km/h
Temperatura: 10°C
Sensación frio: 9°C
Rocío: 7°C
Humedad: 82%
Barómetro: 1012 hPa
Clouds: Few Clouds
Visibility: 10 km
Cloud details: Few Clouds 610 m
2018/11/21 07:30 LEAL 210730Z 24005KT 9999 FEW020 10/07 Q1012 NOSIG
LEAM - Almeria Airport, Spain
Distance from station: SSO 56km
Actualización: 21/11/2018 08:30
Parcialmente nuboso
Parcialmente nuboso
 Viento del NO
Viento: NO 11 km/h
Temperatura: 13°C
Rocío: 9°C
Humedad: 77%
Barómetro: 1013 hPa
Clouds: Parcialmente nuboso
Visibility: 10 km
Cloud details: Few Clouds 457 m
Parcialmente nuboso 2134 m
2018/11/21 07:30 LEAM 210730Z 32006KT 9999 FEW015 SCT070 13/09 Q1013
 
LEZG - Zaragoza (mil/Ci, Spain
Distance from station: NO 431km
Actualización: 21/11/2018 08:30
Niebla, Muy nuboso
Niebla, Muy nuboso
 Viento del SE
Viento: SE 15 km/h
Temperatura: 7°C
Sensación frio: 4°C
Rocío: 7°C
Humedad: 100%
Barómetro: 1009 hPa
Resumen: Niebla
Clouds: Muy nuboso
Visibility: 1 km
Cloud details: Muy nuboso 30 m
2018/11/21 07:30 LEZG 210730Z 13008KT 0500 R30R/1400D FG BKN001 07/07 Q1009
LEMD - Madrid/Barajas, Spain
Distance from station: ONO 234km
Actualización: 21/11/2018 08:30
Parcialmente nuboso
Parcialmente nuboso
 Viento del S
Viento: S 15 km/h, Racha: 33 km/h
Temperatura: 9°C
Sensación frio: 7°C
Rocío: 7°C
Humedad: 87%
Barómetro: 1009 hPa
Clouds: Parcialmente nuboso
Visibility: 10 km
Cloud details: Few Clouds 610 m
Parcialmente nuboso 1219 m
2018/11/21 07:30 LEMD 210730Z 19008G18KT 130V220 9999 FEW020 SCT040 09/07 Q1009 R88/29//95 NOSIG
 
LEGR - Granada Airport, Spain
Distance from station: OSO 62km
Actualización: 21/11/2018 08:30
Muy nuboso
Muy nuboso
 Viento del S
Viento: S 2 km/h
Temperatura: 9°C
Rocío: 9°C
Humedad: 100%
Barómetro: 1013 hPa
Clouds: Muy nuboso
Visibility: 10 km
Cloud details: Few Clouds 457 m
Parcialmente nuboso 914 m
Muy nuboso 1829 m
2018/11/21 07:30 LEGR 210730Z 17001KT 9999 FEW015 SCT030 BKN060 09/09 Q1013
LEMG - Malaga (civ/Mil), Spain
Distance from station: OSO 227km
Actualización: 21/11/2018 08:30
Muy nuboso
Muy nuboso
 Viento del ONO
Viento: ONO 7 km/h
Temperatura: 12°C
Rocío: 11°C
Humedad: 94%
Barómetro: 1013 hPa
Clouds: Muy nuboso
Visibility: 10 km
Cloud details: Parcialmente nuboso 457 m
Muy nuboso 1829 m
2018/11/21 07:30 LEMG 210730Z 30004KT 9999 SCT015CB BKN060 12/11 Q1013 NOSIG
 
LEZL - Sevilla (civ/Mil, Spain
Distance from station: S 318km
Actualización: 21/11/2018 08:30
Few Clouds
Few Clouds
 Viento del NNO
Viento: NNO 2 km/h
Temperatura: 11°C
Rocío: 10°C
Humedad: 94%
Barómetro: 1012 hPa
Clouds: Few Clouds
Visibility: 6 km
Cloud details: Few Clouds 61 m
2018/11/21 07:30 LEZL 210730Z 34001KT 6000 FEW002 11/10 Q1012 NOSIG
LEVT - Vitoria, Spain
Distance from station: NO 226km
Actualización: 21/11/2018 08:30
Parcialmente nuboso
Parcialmente nuboso
 Viento del NE
Viento: NE 9 km/h
Temperatura: 4°C
Sensación frio: 2°C
Rocío: 3°C
Humedad: 93%
Barómetro: 1007 hPa
Clouds: Parcialmente nuboso
Visibility: 10 km
Cloud details: Few Clouds 122 m
Parcialmente nuboso 396 m
2018/11/21 07:30 LEVT 210730Z 05005KT 9999 FEW004 SCT013 04/03 Q1007
 
LEBB - Bilbao/Sondica, Spain
Distance from station: NNO 235km
Actualización: 21/11/2018 08:30
Parcialmente nuboso
Parcialmente nuboso
 Viento del ESE
Viento: ESE 7 km/h
Temperatura: 7°C
Sensación frio: 6°C
Rocío: 6°C
Humedad: 93%
Barómetro: 1006 hPa
Clouds: Parcialmente nuboso
Visibility: 10 km
Cloud details: Parcialmente nuboso 2042 m
2018/11/21 07:30 LEBB 210730Z 11004KT 080V150 9999 SCT067 07/06 Q1006 NOSIG
LESO - San Sebastian/Fu, Spain
Distance from station: N 231km
Actualización: 21/11/2018 08:30
Muy nuboso
Muy nuboso
 Viento del varies
Viento: varies 2 km/h
Temperatura: 6°C
Rocío: 5°C
Humedad: 93%
Barómetro: 1007 hPa
Clouds: Muy nuboso
Visibility: 10 km
Cloud details: Few Clouds 853 m
Parcialmente nuboso 1219 m
Muy nuboso 1676 m
2018/11/21 07:30 LESO 210730Z VRB01KT 9999 FEW028 SCT040 BKN055 06/05 Q1007
 
LEVD - Valladolid(Mil/C, Spain
Distance from station: ONO 239km
Actualización: 21/11/2018 08:30
Muy nuboso
Muy nuboso
 Viento del SO
Viento: SO 24 km/h
Temperatura: 6°C
Sensación frio: 2°C
Rocío: 4°C
Humedad: 87%
Barómetro: 1006 hPa
Clouds: Muy nuboso
Visibility: 10 km
Cloud details: Muy nuboso 366 m
Muy nuboso 549 m
2018/11/21 07:30 LEVD 210730Z 23013KT 9999 BKN012 BKN018 06/04 Q1006
LESA - Salamanca (civ/M, Spain
Distance from station: ONO 349km
Actualización: 21/11/2018 08:30
Parcialmente nuboso
Parcialmente nuboso
 Viento del calm
Viento: Calma
Temperatura: 4°C
Rocío: 3°C
Humedad: 93%
Barómetro: 1007 hPa
Clouds: Parcialmente nuboso
Visibility: 10 km
Cloud details: Few Clouds 914 m
Parcialmente nuboso 1128 m
2018/11/21 07:30 LESA 210730Z 00000KT 9999 FEW030 SCT037 04/03 Q1007
 
LEXJ - Santander/Paraya, Spain
Distance from station: NNO 247km
Actualización: 21/11/2018 08:30
Parcialmente nuboso
Parcialmente nuboso
 Viento del SE
Viento: SE 4 km/h
Temperatura: 5°C
Rocío: 5°C
Humedad: 100%
Barómetro: 1005 hPa
Clouds: Parcialmente nuboso
Visibility: 9 km
Cloud details: Parcialmente nuboso 2530 m
2018/11/21 07:30 LEXJ 210730Z 14002KT 9000 SCT083 05/05 Q1005
LEAS - Asturias/Aviles, Spain
Distance from station: NO 214km
Actualización: 21/11/2018 08:30
Nearby fog, Parcialmente nuboso
Nearby fog, Parcialmente nuboso
 Viento del SO
Viento: SO 13 km/h
Temperatura: 5°C
Sensación frio: 2°C
Rocío: 5°C
Humedad: 100%
Barómetro: 1005 hPa
Resumen: Nearby Fog
Clouds: Parcialmente nuboso
Visibility: 8 km
Cloud details: Few Clouds 30 m
Parcialmente nuboso 1981 m
2018/11/21 07:30 LEAS 210730Z 23007KT 8000 VCFG FEW001 SCT065 05/05 Q1005 NOSIG
 
LECO - La Coruna/Alvedr, Spain
Distance from station: ONO 222km
Actualización: 21/11/2018 08:30
Despejado
Despejado
 Viento del SSO
Viento: SSO 13 km/h
Temperatura: 9°C
Sensación frio: 7°C
Rocío: 6°C
Humedad: 82%
Barómetro: 1003 hPa
Resumen: Despejado
Visibility: greater than 10 km
2018/11/21 07:30 LECO 210730Z 20007KT 170V230 CAVOK 09/06 Q1003 TEMPO RA SCT025
LEVX - Vigo/Peinador, Spain
Distance from station: O 214km
Actualización: 21/11/2018 08:49
Rain showers, Patches of, Niebla, Muy nuboso
Rain showers, Patches of, Niebla, Muy nuboso
 Viento del S
Viento: S 9 km/h
Temperatura: 8°C
Sensación frio: 6°C
Rocío: 8°C
Humedad: 100%
Barómetro: 1005 hPa
Resumen: Rain showers, Patches of, Niebla
Clouds: Muy nuboso
Visibility: 7 km
Cloud details: Few Clouds 152 m
Muy nuboso 914 m
2018/11/21 07:49 LEVX 210749Z 19005KT 150V230 7000 SHRA BCFG FEW005 BKN030TCU 08/08 Q1005 TEMPO -SHRA